sensor_id;sensor_type;location;lat;lon;timestamp;P1;durP1;ratioP1;P2;durP2;ratioP2
59770;SDS011;45649;53.014;6.600;2023-08-17T00:02:13;4.10;;;1.80;;
59770;SDS011;45649;53.014;6.600;2023-08-17T00:04:40;4.07;;;1.90;;
59770;SDS011;45649;53.014;6.600;2023-08-17T00:07:06;2.37;;;1.80;;
59770;SDS011;45649;53.014;6.600;2023-08-17T00:09:32;3.73;;;2.00;;
59770;SDS011;45649;53.014;6.600;2023-08-17T00:11:58;3.43;;;1.90;;
59770;SDS011;45649;53.014;6.600;2023-08-17T00:14:24;3.07;;;1.60;;
59770;SDS011;45649;53.014;6.600;2023-08-17T00:16:51;5.30;;;2.17;;
59770;SDS011;45649;53.014;6.600;2023-08-17T00:19:17;4.40;;;2.10;;
59770;SDS011;45649;53.014;6.600;2023-08-17T00:21:44;4.38;;;1.95;;
59770;SDS011;45649;53.014;6.600;2023-08-17T00:24:10;5.40;;;1.80;;
59770;SDS011;45649;53.014;6.600;2023-08-17T00:26:37;5.33;;;1.80;;
59770;SDS011;45649;53.014;6.600;2023-08-17T00:29:03;3.30;;;2.00;;
59770;SDS011;45649;53.014;6.600;2023-08-17T00:31:29;4.80;;;1.90;;
59770;SDS011;45649;53.014;6.600;2023-08-17T00:33:55;3.73;;;2.10;;
59770;SDS011;45649;53.014;6.600;2023-08-17T00:36:21;3.93;;;1.77;;
59770;SDS011;45649;53.014;6.600;2023-08-17T00:38:47;4.80;;;1.73;;
59770;SDS011;45649;53.014;6.600;2023-08-17T00:41:13;2.67;;;1.80;;
59770;SDS011;45649;53.014;6.600;2023-08-17T00:43:39;6.47;;;1.90;;
59770;SDS011;45649;53.014;6.600;2023-08-17T00:46:06;3.37;;;1.93;;
59770;SDS011;45649;53.014;6.600;2023-08-17T00:48:32;3.27;;;1.90;;
59770;SDS011;45649;53.014;6.600;2023-08-17T00:50:58;5.93;;;1.97;;
59770;SDS011;45649;53.014;6.600;2023-08-17T00:53:26;6.07;;;1.90;;
59770;SDS011;45649;53.014;6.600;2023-08-17T00:55:53;3.17;;;1.70;;
59770;SDS011;45649;53.014;6.600;2023-08-17T00:58:20;5.83;;;2.30;;
59770;SDS011;45649;53.014;6.600;2023-08-17T01:00:47;4.97;;;1.93;;
59770;SDS011;45649;53.014;6.600;2023-08-17T01:03:13;5.83;;;2.20;;
59770;SDS011;45649;53.014;6.600;2023-08-17T01:05:39;4.97;;;2.00;;
59770;SDS011;45649;53.014;6.600;2023-08-17T01:08:05;2.53;;;1.90;;
59770;SDS011;45649;53.014;6.600;2023-08-17T01:10:35;4.33;;;2.00;;
59770;SDS011;45649;53.014;6.600;2023-08-17T01:13:09;3.07;;;1.73;;
59770;SDS011;45649;53.014;6.600;2023-08-17T01:15:39;5.70;;;1.90;;
59770;SDS011;45649;53.014;6.600;2023-08-17T01:18:11;3.97;;;2.10;;
59770;SDS011;45649;53.014;6.600;2023-08-17T01:20:40;5.70;;;2.10;;
59770;SDS011;45649;53.014;6.600;2023-08-17T01:23:06;2.90;;;1.80;;
59770;SDS011;45649;53.014;6.600;2023-08-17T01:25:32;4.63;;;2.20;;
59770;SDS011;45649;53.014;6.600;2023-08-17T01:28:02;4.67;;;1.90;;
59770;SDS011;45649;53.014;6.600;2023-08-17T01:30:30;4.90;;;2.17;;
59770;SDS011;45649;53.014;6.600;2023-08-17T01:32:58;4.10;;;2.40;;
59770;SDS011;45649;53.014;6.600;2023-08-17T01:38:22;2.60;;;2.03;;
59770;SDS011;45649;53.014;6.600;2023-08-17T01:40:49;4.37;;;2.00;;
59770;SDS011;45649;53.014;6.600;2023-08-17T01:43:16;3.03;;;1.90;;
59770;SDS011;45649;53.014;6.600;2023-08-17T01:45:43;2.73;;;2.00;;
59770;SDS011;45649;53.014;6.600;2023-08-17T01:48:09;5.03;;;2.17;;
59770;SDS011;45649;53.014;6.600;2023-08-17T01:50:35;5.40;;;2.07;;
59770;SDS011;45649;53.014;6.600;2023-08-17T01:53:01;4.67;;;2.30;;
59770;SDS011;45649;53.014;6.600;2023-08-17T01:55:27;6.13;;;2.10;;
59770;SDS011;45649;53.014;6.600;2023-08-17T01:57:53;3.53;;;2.30;;
59770;SDS011;45649;53.014;6.600;2023-08-17T02:03:08;2.47;;;2.10;;
59770;SDS011;45649;53.014;6.600;2023-08-17T02:05:36;3.00;;;2.40;;
59770;SDS011;45649;53.014;6.600;2023-08-17T02:08:03;4.83;;;2.20;;
59770;SDS011;45649;53.014;6.600;2023-08-17T02:10:31;2.97;;;2.00;;
59770;SDS011;45649;53.014;6.600;2023-08-17T02:12:57;3.97;;;2.20;;
59770;SDS011;45649;53.014;6.600;2023-08-17T02:15:23;4.47;;;2.27;;
59770;SDS011;45649;53.014;6.600;2023-08-17T02:17:49;3.20;;;2.00;;
59770;SDS011;45649;53.014;6.600;2023-08-17T02:20:15;3.63;;;2.20;;
59770;SDS011;45649;53.014;6.600;2023-08-17T02:22:41;6.33;;;2.10;;
59770;SDS011;45649;53.014;6.600;2023-08-17T02:25:08;5.50;;;2.40;;
59770;SDS011;45649;53.014;6.600;2023-08-17T02:27:34;4.10;;;2.40;;
59770;SDS011;45649;53.014;6.600;2023-08-17T02:30:00;4.83;;;2.23;;
59770;SDS011;45649;53.014;6.600;2023-08-17T02:32:26;3.77;;;2.00;;
59770;SDS011;45649;53.014;6.600;2023-08-17T02:34:52;5.20;;;2.43;;
59770;SDS011;45649;53.014;6.600;2023-08-17T02:37:18;5.27;;;2.43;;
59770;SDS011;45649;53.014;6.600;2023-08-17T02:39:44;4.63;;;2.40;;
59770;SDS011;45649;53.014;6.600;2023-08-17T02:42:11;5.77;;;2.53;;
59770;SDS011;45649;53.014;6.600;2023-08-17T02:44:37;6.17;;;2.60;;
59770;SDS011;45649;53.014;6.600;2023-08-17T02:47:03;3.83;;;2.10;;
59770;SDS011;45649;53.014;6.600;2023-08-17T02:49:32;3.77;;;2.20;;
59770;SDS011;45649;53.014;6.600;2023-08-17T02:51:58;6.07;;;2.30;;
59770;SDS011;45649;53.014;6.600;2023-08-17T02:54:24;3.30;;;2.00;;
59770;SDS011;45649;53.014;6.600;2023-08-17T02:56:50;4.37;;;2.13;;
59770;SDS011;45649;53.014;6.600;2023-08-17T02:59:16;3.83;;;2.20;;
59770;SDS011;45649;53.014;6.600;2023-08-17T03:01:44;3.50;;;2.30;;
59770;SDS011;45649;53.014;6.600;2023-08-17T03:04:10;5.40;;;2.50;;
59770;SDS011;45649;53.014;6.600;2023-08-17T03:06:36;3.63;;;2.20;;
59770;SDS011;45649;53.014;6.600;2023-08-17T03:09:02;5.30;;;2.20;;
59770;SDS011;45649;53.014;6.600;2023-08-17T03:11:28;7.47;;;2.73;;
59770;SDS011;45649;53.014;6.600;2023-08-17T03:13:57;5.00;;;2.40;;
59770;SDS011;45649;53.014;6.600;2023-08-17T03:16:28;4.63;;;2.30;;
59770;SDS011;45649;53.014;6.600;2023-08-17T03:18:55;4.33;;;2.50;;
59770;SDS011;45649;53.014;6.600;2023-08-17T03:21:21;5.07;;;2.43;;
59770;SDS011;45649;53.014;6.600;2023-08-17T03:23:48;3.13;;;2.50;;
59770;SDS011;45649;53.014;6.600;2023-08-17T03:26:14;5.40;;;2.57;;
59770;SDS011;45649;53.014;6.600;2023-08-17T03:28:40;5.27;;;2.67;;
59770;SDS011;45649;53.014;6.600;2023-08-17T03:31:07;6.63;;;2.80;;
59770;SDS011;45649;53.014;6.600;2023-08-17T03:33:34;6.40;;;2.67;;
59770;SDS011;45649;53.014;6.600;2023-08-17T03:36:00;3.20;;;2.20;;
59770;SDS011;45649;53.014;6.600;2023-08-17T03:38:26;3.83;;;2.60;;
59770;SDS011;45649;53.014;6.600;2023-08-17T03:40:52;4.87;;;2.47;;
59770;SDS011;45649;53.014;6.600;2023-08-17T03:43:20;5.47;;;2.50;;
59770;SDS011;45649;53.014;6.600;2023-08-17T03:45:46;4.80;;;2.30;;
59770;SDS011;45649;53.014;6.600;2023-08-17T03:48:12;5.53;;;2.40;;
59770;SDS011;45649;53.014;6.600;2023-08-17T03:50:39;4.63;;;2.33;;
59770;SDS011;45649;53.014;6.600;2023-08-17T03:53:05;4.10;;;2.70;;
59770;SDS011;45649;53.014;6.600;2023-08-17T03:55:31;5.80;;;2.67;;
59770;SDS011;45649;53.014;6.600;2023-08-17T03:57:57;5.27;;;2.70;;
59770;SDS011;45649;53.014;6.600;2023-08-17T04:00:23;6.40;;;2.60;;
59770;SDS011;45649;53.014;6.600;2023-08-17T04:02:49;5.67;;;2.17;;
59770;SDS011;45649;53.014;6.600;2023-08-17T04:05:15;4.30;;;2.37;;
59770;SDS011;45649;53.014;6.600;2023-08-17T04:07:41;6.17;;;2.40;;
59770;SDS011;45649;53.014;6.600;2023-08-17T04:10:07;4.23;;;2.50;;
59770;SDS011;45649;53.014;6.600;2023-08-17T04:12:34;5.33;;;2.50;;
59770;SDS011;45649;53.014;6.600;2023-08-17T04:15:00;7.93;;;2.37;;
59770;SDS011;45649;53.014;6.600;2023-08-17T04:17:26;5.07;;;2.50;;
59770;SDS011;45649;53.014;6.600;2023-08-17T04:19:55;6.73;;;2.50;;
59770;SDS011;45649;53.014;6.600;2023-08-17T04:22:21;5.07;;;2.37;;
59770;SDS011;45649;53.014;6.600;2023-08-17T04:24:47;3.87;;;2.33;;
59770;SDS011;45649;53.014;6.600;2023-08-17T04:27:13;5.00;;;2.47;;
59770;SDS011;45649;53.014;6.600;2023-08-17T04:29:39;4.50;;;2.43;;
59770;SDS011;45649;53.014;6.600;2023-08-17T04:32:05;3.70;;;2.20;;
59770;SDS011;45649;53.014;6.600;2023-08-17T04:34:31;6.17;;;2.33;;
59770;SDS011;45649;53.014;6.600;2023-08-17T04:36:57;6.03;;;2.13;;
59770;SDS011;45649;53.014;6.600;2023-08-17T04:39:26;6.77;;;2.47;;
59770;SDS011;45649;53.014;6.600;2023-08-17T04:41:52;4.27;;;2.17;;
59770;SDS011;45649;53.014;6.600;2023-08-17T04:44:18;2.90;;;2.10;;
59770;SDS011;45649;53.014;6.600;2023-08-17T04:46:44;4.40;;;2.27;;
59770;SDS011;45649;53.014;6.600;2023-08-17T04:49:10;6.50;;;2.57;;
59770;SDS011;45649;53.014;6.600;2023-08-17T04:51:36;4.80;;;2.13;;
59770;SDS011;45649;53.014;6.600;2023-08-17T04:54:03;3.33;;;2.23;;
59770;SDS011;45649;53.014;6.600;2023-08-17T04:56:29;6.20;;;2.60;;
59770;SDS011;45649;53.014;6.600;2023-08-17T04:58:58;2.90;;;2.27;;
59770;SDS011;45649;53.014;6.600;2023-08-17T05:01:27;4.80;;;2.43;;
59770;SDS011;45649;53.014;6.600;2023-08-17T05:03:53;4.70;;;2.47;;
59770;SDS011;45649;53.014;6.600;2023-08-17T05:06:19;6.37;;;2.20;;
59770;SDS011;45649;53.014;6.600;2023-08-17T05:08:45;5.20;;;2.43;;
59770;SDS011;45649;53.014;6.600;2023-08-17T05:11:12;8.53;;;2.50;;
59770;SDS011;45649;53.014;6.600;2023-08-17T05:13:38;4.67;;;2.47;;
59770;SDS011;45649;53.014;6.600;2023-08-17T05:16:06;3.80;;;2.20;;
59770;SDS011;45649;53.014;6.600;2023-08-17T05:18:32;7.33;;;2.37;;
59770;SDS011;45649;53.014;6.600;2023-08-17T05:20:58;2.93;;;2.03;;
59770;SDS011;45649;53.014;6.600;2023-08-17T05:23:28;6.13;;;2.40;;
59770;SDS011;45649;53.014;6.600;2023-08-17T05:25:54;4.13;;;2.27;;
59770;SDS011;45649;53.014;6.600;2023-08-17T05:28:23;3.07;;;2.00;;
59770;SDS011;45649;53.014;6.600;2023-08-17T05:30:53;3.67;;;2.33;;
59770;SDS011;45649;53.014;6.600;2023-08-17T05:33:19;5.07;;;2.40;;
59770;SDS011;45649;53.014;6.600;2023-08-17T05:35:45;4.73;;;2.30;;
59770;SDS011;45649;53.014;6.600;2023-08-17T05:38:11;4.30;;;2.23;;
59770;SDS011;45649;53.014;6.600;2023-08-17T05:40:37;4.63;;;2.53;;
59770;SDS011;45649;53.014;6.600;2023-08-17T05:43:03;4.93;;;2.20;;
59770;SDS011;45649;53.014;6.600;2023-08-17T05:45:32;6.07;;;2.57;;
59770;SDS011;45649;53.014;6.600;2023-08-17T05:48:01;3.43;;;2.00;;
59770;SDS011;45649;53.014;6.600;2023-08-17T05:50:27;5.80;;;2.40;;
59770;SDS011;45649;53.014;6.600;2023-08-17T05:52:54;6.73;;;2.63;;
59770;SDS011;45649;53.014;6.600;2023-08-17T05:55:21;4.60;;;2.57;;
59770;SDS011;45649;53.014;6.600;2023-08-17T05:57:47;3.37;;;2.20;;
59770;SDS011;45649;53.014;6.600;2023-08-17T06:00:13;7.10;;;2.50;;
59770;SDS011;45649;53.014;6.600;2023-08-17T06:02:40;6.30;;;2.63;;
59770;SDS011;45649;53.014;6.600;2023-08-17T06:05:09;5.80;;;2.07;;
59770;SDS011;45649;53.014;6.600;2023-08-17T06:07:35;3.13;;;2.20;;
59770;SDS011;45649;53.014;6.600;2023-08-17T06:10:03;4.40;;;2.30;;
59770;SDS011;45649;53.014;6.600;2023-08-17T06:12:29;2.53;;;2.20;;
59770;SDS011;45649;53.014;6.600;2023-08-17T06:14:55;5.73;;;2.40;;
59770;SDS011;45649;53.014;6.600;2023-08-17T06:17:21;4.03;;;2.10;;
59770;SDS011;45649;53.014;6.600;2023-08-17T06:19:47;5.17;;;2.27;;
59770;SDS011;45649;53.014;6.600;2023-08-17T06:22:13;5.60;;;2.30;;
59770;SDS011;45649;53.014;6.600;2023-08-17T06:24:39;4.37;;;2.30;;
59770;SDS011;45649;53.014;6.600;2023-08-17T06:27:05;3.80;;;2.20;;
59770;SDS011;45649;53.014;6.600;2023-08-17T06:29:31;7.77;;;2.30;;
59770;SDS011;45649;53.014;6.600;2023-08-17T06:31:57;5.13;;;2.50;;
59770;SDS011;45649;53.014;6.600;2023-08-17T06:34:23;7.60;;;2.30;;
59770;SDS011;45649;53.014;6.600;2023-08-17T06:36:56;6.63;;;2.60;;
59770;SDS011;45649;53.014;6.600;2023-08-17T06:39:23;6.60;;;2.30;;
59770;SDS011;45649;53.014;6.600;2023-08-17T06:41:49;7.80;;;2.50;;
59770;SDS011;45649;53.014;6.600;2023-08-17T06:44:15;4.57;;;2.33;;
59770;SDS011;45649;53.014;6.600;2023-08-17T06:46:41;8.80;;;2.30;;
59770;SDS011;45649;53.014;6.600;2023-08-17T06:49:07;4.07;;;2.00;;
59770;SDS011;45649;53.014;6.600;2023-08-17T06:51:33;5.40;;;2.40;;
59770;SDS011;45649;53.014;6.600;2023-08-17T06:53:59;6.17;;;2.60;;
59770;SDS011;45649;53.014;6.600;2023-08-17T06:56:26;5.07;;;2.10;;
59770;SDS011;45649;53.014;6.600;2023-08-17T06:58:52;6.33;;;2.10;;
59770;SDS011;45649;53.014;6.600;2023-08-17T07:01:18;6.13;;;2.50;;
59770;SDS011;45649;53.014;6.600;2023-08-17T07:03:44;7.40;;;2.10;;
59770;SDS011;45649;53.014;6.600;2023-08-17T07:06:10;3.90;;;2.20;;
59770;SDS011;45649;53.014;6.600;2023-08-17T07:08:36;4.30;;;2.20;;
59770;SDS011;45649;53.014;6.600;2023-08-17T07:11:02;6.13;;;2.00;;
59770;SDS011;45649;53.014;6.600;2023-08-17T07:13:30;4.63;;;1.97;;
59770;SDS011;45649;53.014;6.600;2023-08-17T07:15:56;2.47;;;1.70;;
59770;SDS011;45649;53.014;6.600;2023-08-17T07:18:22;4.40;;;1.90;;
59770;SDS011;45649;53.014;6.600;2023-08-17T07:20:48;6.33;;;1.90;;
59770;SDS011;45649;53.014;6.600;2023-08-17T07:23:15;3.97;;;1.70;;
59770;SDS011;45649;53.014;6.600;2023-08-17T07:25:41;5.00;;;1.70;;
59770;SDS011;45649;53.014;6.600;2023-08-17T07:28:07;4.23;;;1.60;;
59770;SDS011;45649;53.014;6.600;2023-08-17T07:30:33;3.20;;;1.60;;
59770;SDS011;45649;53.014;6.600;2023-08-17T07:32:59;4.00;;;1.80;;
59770;SDS011;45649;53.014;6.600;2023-08-17T07:35:25;7.07;;;1.70;;
59770;SDS011;45649;53.014;6.600;2023-08-17T07:37:51;4.57;;;1.50;;
59770;SDS011;45649;53.014;6.600;2023-08-17T07:40:17;2.53;;;1.67;;
59770;SDS011;45649;53.014;6.600;2023-08-17T07:42:44;2.63;;;1.70;;
59770;SDS011;45649;53.014;6.600;2023-08-17T07:45:11;4.87;;;1.60;;
59770;SDS011;45649;53.014;6.600;2023-08-17T07:47:37;3.95;;;1.73;;
59770;SDS011;45649;53.014;6.600;2023-08-17T07:50:04;2.83;;;1.70;;
59770;SDS011;45649;53.014;6.600;2023-08-17T07:52:31;5.10;;;1.90;;
59770;SDS011;45649;53.014;6.600;2023-08-17T07:54:57;3.27;;;1.67;;
59770;SDS011;45649;53.014;6.600;2023-08-17T07:57:23;3.30;;;1.53;;
59770;SDS011;45649;53.014;6.600;2023-08-17T07:59:50;4.50;;;1.70;;
59770;SDS011;45649;53.014;6.600;2023-08-17T08:02:16;3.67;;;1.50;;
59770;SDS011;45649;53.014;6.600;2023-08-17T08:04:42;2.77;;;1.60;;
59770;SDS011;45649;53.014;6.600;2023-08-17T08:07:09;4.63;;;1.80;;
59770;SDS011;45649;53.014;6.600;2023-08-17T08:09:35;3.23;;;1.37;;
59770;SDS011;45649;53.014;6.600;2023-08-17T08:12:02;6.00;;;1.63;;
59770;SDS011;45649;53.014;6.600;2023-08-17T08:14:28;5.27;;;1.53;;
59770;SDS011;45649;53.014;6.600;2023-08-17T08:16:54;5.67;;;1.43;;
59770;SDS011;45649;53.014;6.600;2023-08-17T08:19:20;4.30;;;1.40;;
59770;SDS011;45649;53.014;6.600;2023-08-17T08:21:46;2.37;;;1.40;;
59770;SDS011;45649;53.014;6.600;2023-08-17T08:24:12;2.73;;;1.50;;
59770;SDS011;45649;53.014;6.600;2023-08-17T08:26:38;1.97;;;1.50;;
59770;SDS011;45649;53.014;6.600;2023-08-17T08:29:04;3.50;;;1.33;;
59770;SDS011;45649;53.014;6.600;2023-08-17T08:31:31;3.83;;;1.30;;
59770;SDS011;45649;53.014;6.600;2023-08-17T08:33:57;2.90;;;1.40;;
59770;SDS011;45649;53.014;6.600;2023-08-17T08:36:24;3.60;;;1.30;;
59770;SDS011;45649;53.014;6.600;2023-08-17T08:38:50;3.70;;;1.43;;
59770;SDS011;45649;53.014;6.600;2023-08-17T08:41:16;2.33;;;1.37;;
59770;SDS011;45649;53.014;6.600;2023-08-17T08:43:43;2.73;;;1.40;;
59770;SDS011;45649;53.014;6.600;2023-08-17T08:46:09;3.67;;;1.67;;
59770;SDS011;45649;53.014;6.600;2023-08-17T08:48:35;4.63;;;1.53;;
59770;SDS011;45649;53.014;6.600;2023-08-17T08:51:03;2.07;;;1.30;;
59770;SDS011;45649;53.014;6.600;2023-08-17T08:53:32;3.93;;;1.80;;
59770;SDS011;45649;53.014;6.600;2023-08-17T08:56:02;2.87;;;1.43;;
59770;SDS011;45649;53.014;6.600;2023-08-17T08:58:29;2.83;;;1.57;;
59770;SDS011;45649;53.014;6.600;2023-08-17T09:00:55;2.50;;;1.50;;
59770;SDS011;45649;53.014;6.600;2023-08-17T09:03:23;2.77;;;1.70;;
59770;SDS011;45649;53.014;6.600;2023-08-17T09:05:50;6.00;;;1.50;;
59770;SDS011;45649;53.014;6.600;2023-08-17T09:08:21;3.37;;;1.77;;
59770;SDS011;45649;53.014;6.600;2023-08-17T09:10:50;2.77;;;1.37;;
59770;SDS011;45649;53.014;6.600;2023-08-17T09:13:16;2.20;;;1.33;;
59770;SDS011;45649;53.014;6.600;2023-08-17T09:15:42;2.53;;;1.50;;
59770;SDS011;45649;53.014;6.600;2023-08-17T09:18:08;3.60;;;1.43;;
59770;SDS011;45649;53.014;6.600;2023-08-17T09:20:45;5.83;;;1.50;;
59770;SDS011;45649;53.014;6.600;2023-08-17T09:25:41;2.47;;;1.30;;
59770;SDS011;45649;53.014;6.600;2023-08-17T09:28:08;5.07;;;1.70;;
59770;SDS011;45649;53.014;6.600;2023-08-17T09:30:48;4.13;;;1.70;;
59770;SDS011;45649;53.014;6.600;2023-08-17T09:33:15;3.47;;;1.63;;
59770;SDS011;45649;53.014;6.600;2023-08-17T09:35:42;2.33;;;1.57;;
59770;SDS011;45649;53.014;6.600;2023-08-17T09:38:08;4.00;;;1.63;;
59770;SDS011;45649;53.014;6.600;2023-08-17T09:40:34;2.80;;;1.40;;
59770;SDS011;45649;53.014;6.600;2023-08-17T09:43:01;3.70;;;1.60;;
59770;SDS011;45649;53.014;6.600;2023-08-17T09:45:28;4.23;;;1.50;;
59770;SDS011;45649;53.014;6.600;2023-08-17T09:47:54;6.67;;;1.73;;
59770;SDS011;45649;53.014;6.600;2023-08-17T09:50:23;5.67;;;2.10;;
59770;SDS011;45649;53.014;6.600;2023-08-17T09:52:53;4.97;;;1.90;;
59770;SDS011;45649;53.014;6.600;2023-08-17T09:55:22;5.07;;;2.03;;
59770;SDS011;45649;53.014;6.600;2023-08-17T09:57:52;2.87;;;1.70;;
59770;SDS011;45649;53.014;6.600;2023-08-17T10:00:19;3.63;;;1.77;;
59770;SDS011;45649;53.014;6.600;2023-08-17T10:02:45;2.63;;;1.70;;
59770;SDS011;45649;53.014;6.600;2023-08-17T10:05:14;3.17;;;1.47;;
59770;SDS011;45649;53.014;6.600;2023-08-17T10:07:43;3.03;;;1.80;;
59770;SDS011;45649;53.014;6.600;2023-08-17T10:10:13;4.10;;;1.73;;
59770;SDS011;45649;53.014;6.600;2023-08-17T10:12:48;2.60;;;1.80;;
59770;SDS011;45649;53.014;6.600;2023-08-17T10:15:16;3.47;;;1.93;;
59770;SDS011;45649;53.014;6.600;2023-08-17T10:17:48;4.03;;;1.80;;
59770;SDS011;45649;53.014;6.600;2023-08-17T10:20:15;2.77;;;1.90;;
59770;SDS011;45649;53.014;6.600;2023-08-17T10:22:44;2.13;;;1.70;;
59770;SDS011;45649;53.014;6.600;2023-08-17T10:25:12;5.73;;;1.77;;
59770;SDS011;45649;53.014;6.600;2023-08-17T10:27:39;3.30;;;1.80;;
59770;SDS011;45649;53.014;6.600;2023-08-17T10:30:06;2.77;;;1.90;;
59770;SDS011;45649;53.014;6.600;2023-08-17T10:32:33;4.87;;;1.80;;
59770;SDS011;45649;53.014;6.600;2023-08-17T10:35:00;3.87;;;1.57;;
59770;SDS011;45649;53.014;6.600;2023-08-17T10:37:27;4.17;;;1.80;;
59770;SDS011;45649;53.014;6.600;2023-08-17T10:39:54;3.87;;;2.00;;
59770;SDS011;45649;53.014;6.600;2023-08-17T10:42:33;4.80;;;2.00;;
59770;SDS011;45649;53.014;6.600;2023-08-17T10:45:00;4.10;;;2.23;;
59770;SDS011;45649;53.014;6.600;2023-08-17T10:52:33;4.43;;;1.90;;
59770;SDS011;45649;53.014;6.600;2023-08-17T10:55:09;3.63;;;2.00;;
59770;SDS011;45649;53.014;6.600;2023-08-17T10:57:36;3.60;;;1.97;;
59770;SDS011;45649;53.014;6.600;2023-08-17T11:00:06;4.27;;;2.00;;
59770;SDS011;45649;53.014;6.600;2023-08-17T11:02:33;3.40;;;1.93;;
59770;SDS011;45649;53.014;6.600;2023-08-17T11:05:00;4.53;;;2.00;;
59770;SDS011;45649;53.014;6.600;2023-08-17T11:07:27;3.17;;;1.90;;
59770;SDS011;45649;53.014;6.600;2023-08-17T11:09:56;4.03;;;1.90;;
59770;SDS011;45649;53.014;6.600;2023-08-17T11:12:26;3.10;;;2.07;;
59770;SDS011;45649;53.014;6.600;2023-08-17T11:14:53;3.23;;;2.30;;
59770;SDS011;45649;53.014;6.600;2023-08-17T11:17:24;3.73;;;2.30;;
59770;SDS011;45649;53.014;6.600;2023-08-17T11:19:50;4.43;;;2.20;;
59770;SDS011;45649;53.014;6.600;2023-08-17T11:22:16;4.17;;;2.07;;
59770;SDS011;45649;53.014;6.600;2023-08-17T11:24:42;4.03;;;2.00;;
59770;SDS011;45649;53.014;6.600;2023-08-17T11:27:09;4.07;;;2.10;;
59770;SDS011;45649;53.014;6.600;2023-08-17T11:29:35;4.33;;;2.33;;
59770;SDS011;45649;53.014;6.600;2023-08-17T11:32:02;3.23;;;2.00;;
59770;SDS011;45649;53.014;6.600;2023-08-17T11:34:29;4.93;;;2.30;;
59770;SDS011;45649;53.014;6.600;2023-08-17T11:36:58;5.97;;;2.30;;
59770;SDS011;45649;53.014;6.600;2023-08-17T11:39:25;5.07;;;1.97;;
59770;SDS011;45649;53.014;6.600;2023-08-17T11:41:51;4.03;;;2.10;;
59770;SDS011;45649;53.014;6.600;2023-08-17T11:44:18;3.93;;;2.20;;
59770;SDS011;45649;53.014;6.600;2023-08-17T11:46:47;4.20;;;2.20;;
59770;SDS011;45649;53.014;6.600;2023-08-17T11:49:13;3.50;;;2.27;;
59770;SDS011;45649;53.014;6.600;2023-08-17T11:51:39;2.80;;;2.00;;
59770;SDS011;45649;53.014;6.600;2023-08-17T11:54:05;4.60;;;2.27;;
59770;SDS011;45649;53.014;6.600;2023-08-17T11:56:33;2.67;;;2.20;;
59770;SDS011;45649;53.014;6.600;2023-08-17T11:58:59;2.43;;;2.20;;
59770;SDS011;45649;53.014;6.600;2023-08-17T12:01:33;4.10;;;2.27;;
59770;SDS011;45649;53.014;6.600;2023-08-17T12:04:00;4.00;;;2.40;;
59770;SDS011;45649;53.014;6.600;2023-08-17T12:06:26;2.80;;;2.30;;
59770;SDS011;45649;53.014;6.600;2023-08-17T12:08:52;3.47;;;2.10;;
59770;SDS011;45649;53.014;6.600;2023-08-17T12:11:18;4.90;;;2.50;;
59770;SDS011;45649;53.014;6.600;2023-08-17T12:13:48;2.40;;;2.00;;
59770;SDS011;45649;53.014;6.600;2023-08-17T12:16:16;3.13;;;2.30;;
59770;SDS011;45649;53.014;6.600;2023-08-17T12:18:47;3.20;;;2.40;;
59770;SDS011;45649;53.014;6.600;2023-08-17T12:21:13;7.27;;;2.43;;
59770;SDS011;45649;53.014;6.600;2023-08-17T12:23:39;5.30;;;2.60;;
59770;SDS011;45649;53.014;6.600;2023-08-17T12:26:05;2.53;;;2.20;;
59770;SDS011;45649;53.014;6.600;2023-08-17T12:28:32;4.20;;;2.60;;
59770;SDS011;45649;53.014;6.600;2023-08-17T12:31:02;2.10;;;1.90;;
59770;SDS011;45649;53.014;6.600;2023-08-17T12:33:28;2.67;;;2.03;;
59770;SDS011;45649;53.014;6.600;2023-08-17T12:35:54;2.80;;;2.20;;
59770;SDS011;45649;53.014;6.600;2023-08-17T12:38:22;2.97;;;2.43;;
59770;SDS011;45649;53.014;6.600;2023-08-17T12:40:48;4.00;;;2.47;;
59770;SDS011;45649;53.014;6.600;2023-08-17T12:43:14;2.73;;;2.50;;
59770;SDS011;45649;53.014;6.600;2023-08-17T12:45:40;3.83;;;2.40;;
59770;SDS011;45649;53.014;6.600;2023-08-17T12:48:06;3.70;;;2.40;;
59770;SDS011;45649;53.014;6.600;2023-08-17T12:50:35;5.43;;;2.33;;
59770;SDS011;45649;53.014;6.600;2023-08-17T12:53:01;4.47;;;2.40;;
59770;SDS011;45649;53.014;6.600;2023-08-17T12:55:27;5.13;;;2.53;;
59770;SDS011;45649;53.014;6.600;2023-08-17T12:57:53;5.03;;;2.80;;
59770;SDS011;45649;53.014;6.600;2023-08-17T13:00:19;4.17;;;2.50;;
59770;SDS011;45649;53.014;6.600;2023-08-17T13:02:45;4.70;;;2.17;;
59770;SDS011;45649;53.014;6.600;2023-08-17T13:05:14;2.50;;;2.00;;
59770;SDS011;45649;53.014;6.600;2023-08-17T13:07:40;2.90;;;2.30;;
59770;SDS011;45649;53.014;6.600;2023-08-17T13:10:06;2.90;;;2.30;;
59770;SDS011;45649;53.014;6.600;2023-08-17T13:12:32;4.83;;;2.07;;
59770;SDS011;45649;53.014;6.600;2023-08-17T13:14:58;3.53;;;2.03;;
59770;SDS011;45649;53.014;6.600;2023-08-17T13:17:24;3.70;;;2.13;;
59770;SDS011;45649;53.014;6.600;2023-08-17T13:19:50;4.50;;;2.40;;
59770;SDS011;45649;53.014;6.600;2023-08-17T13:22:16;3.17;;;2.00;;
59770;SDS011;45649;53.014;6.600;2023-08-17T13:24:43;4.10;;;2.30;;
59770;SDS011;45649;53.014;6.600;2023-08-17T13:27:09;4.13;;;2.33;;
59770;SDS011;45649;53.014;6.600;2023-08-17T13:29:35;2.13;;;1.93;;
59770;SDS011;45649;53.014;6.600;2023-08-17T13:32:03;3.47;;;2.30;;
59770;SDS011;45649;53.014;6.600;2023-08-17T13:34:29;4.70;;;2.60;;
59770;SDS011;45649;53.014;6.600;2023-08-17T13:36:56;4.37;;;2.50;;
59770;SDS011;45649;53.014;6.600;2023-08-17T13:39:22;4.93;;;2.60;;
59770;SDS011;45649;53.014;6.600;2023-08-17T13:41:48;4.17;;;2.70;;
59770;SDS011;45649;53.014;6.600;2023-08-17T13:44:14;4.80;;;2.90;;
59770;SDS011;45649;53.014;6.600;2023-08-17T13:46:40;3.37;;;2.53;;
59770;SDS011;45649;53.014;6.600;2023-08-17T13:49:06;5.07;;;2.90;;
59770;SDS011;45649;53.014;6.600;2023-08-17T13:51:32;3.57;;;2.60;;
59770;SDS011;45649;53.014;6.600;2023-08-17T13:53:58;3.33;;;2.70;;
59770;SDS011;45649;53.014;6.600;2023-08-17T13:56:24;2.93;;;2.73;;
59770;SDS011;45649;53.014;6.600;2023-08-17T13:58:53;4.97;;;3.20;;
59770;SDS011;45649;53.014;6.600;2023-08-17T14:01:19;4.50;;;3.23;;
59770;SDS011;45649;53.014;6.600;2023-08-17T14:03:45;3.40;;;2.90;;
59770;SDS011;45649;53.014;6.600;2023-08-17T14:06:11;3.93;;;3.20;;
59770;SDS011;45649;53.014;6.600;2023-08-17T14:08:37;4.57;;;3.27;;
59770;SDS011;45649;53.014;6.600;2023-08-17T14:11:03;4.20;;;3.30;;
59770;SDS011;45649;53.014;6.600;2023-08-17T14:13:31;4.00;;;3.60;;
59770;SDS011;45649;53.014;6.600;2023-08-17T14:15:59;4.00;;;3.70;;
59770;SDS011;45649;53.014;6.600;2023-08-17T14:18:25;4.83;;;3.17;;
59770;SDS011;45649;53.014;6.600;2023-08-17T14:20:51;4.37;;;3.90;;
59770;SDS011;45649;53.014;6.600;2023-08-17T14:23:17;6.90;;;3.40;;
59770;SDS011;45649;53.014;6.600;2023-08-17T14:25:43;4.17;;;3.60;;
59770;SDS011;45649;53.014;6.600;2023-08-17T14:28:09;5.13;;;3.20;;
59770;SDS011;45649;53.014;6.600;2023-08-17T14:30:35;3.70;;;3.20;;
59770;SDS011;45649;53.014;6.600;2023-08-17T14:33:01;4.90;;;3.60;;
59770;SDS011;45649;53.014;6.600;2023-08-17T14:35:28;5.10;;;3.67;;
59770;SDS011;45649;53.014;6.600;2023-08-17T14:37:54;5.03;;;3.13;;
59770;SDS011;45649;53.014;6.600;2023-08-17T14:40:23;3.27;;;2.97;;
59770;SDS011;45649;53.014;6.600;2023-08-17T14:42:49;4.70;;;3.03;;
59770;SDS011;45649;53.014;6.600;2023-08-17T14:45:15;6.03;;;3.20;;
59770;SDS011;45649;53.014;6.600;2023-08-17T14:47:41;5.80;;;3.20;;
59770;SDS011;45649;53.014;6.600;2023-08-17T14:50:07;4.03;;;3.00;;
59770;SDS011;45649;53.014;6.600;2023-08-17T14:52:34;5.13;;;3.30;;
59770;SDS011;45649;53.014;6.600;2023-08-17T14:55:00;5.23;;;3.50;;
59770;SDS011;45649;53.014;6.600;2023-08-17T14:57:26;6.43;;;3.37;;
59770;SDS011;45649;53.014;6.600;2023-08-17T14:59:52;4.23;;;3.00;;